Time;durP1;ratioP1;P1;durP2;ratioP2;P2;SDS_P1;SDS_P2;PMS_P1;PMS_P2;Temp;Humidity;BMP_temperature;BMP_pressure;BME280_temperature;BME280_humidity;BME280_pressure;Samples;Min_cycle;Max_cycle;Signal;HPM_P1;HPM_P2
2022/03/16 00:00:48;;;;;;;57.00;22.52;;;6.00;99.90;;;;;;6166184;23;20009;-84
2022/03/16 00:03:15;;;;;;;54.72;23.42;;;5.90;99.90;;;;;;6166102;23;20024;-84
2022/03/16 00:05:41;;;;;;;46.15;22.10;;;5.90;99.90;;;;;;6166181;23;20087;-84
2022/03/16 00:08:08;;;;;;;58.05;23.60;;;5.90;99.90;;;;;;6166121;23;20013;-84
2022/03/16 00:10:35;;;;;;;56.42;22.48;;;5.90;99.90;;;;;;6165985;23;20005;-84
2022/03/16 00:13:01;;;;;;;58.45;23.40;;;5.90;99.90;;;;;;6190859;23;20008;-85
2022/03/16 00:15:28;;;;;;;57.58;23.13;;;5.80;99.90;;;;;;6165951;23;20043;-84
2022/03/16 00:17:55;;;;;;;61.88;24.02;;;5.80;99.90;;;;;;6166013;23;20012;-84
2022/03/16 00:20:22;;;;;;;63.28;24.38;;;5.80;99.90;;;;;;6166002;23;20005;-84
2022/03/16 00:22:48;;;;;;;70.63;25.60;;;5.80;99.90;;;;;;6166164;23;20008;-84
2022/03/16 00:25:15;;;;;;;61.67;24.33;;;5.80;99.90;;;;;;6191115;23;20008;-84
2022/03/16 00:27:42;;;;;;;69.25;24.80;;;5.80;99.90;;;;;;6165907;23;20028;-84
2022/03/16 00:30:10;;;;;;;54.58;24.70;;;5.70;99.90;;;;;;6190730;23;20005;-84
2022/03/16 00:32:36;;;;;;;62.40;24.38;;;5.70;99.90;;;;;;6166414;23;20006;-84
2022/03/16 00:35:05;;;;;;;54.42;23.38;;;5.70;99.90;;;;;;6190750;23;20343;-84
2022/03/16 00:37:32;;;;;;;54.63;23.00;;;5.70;99.90;;;;;;6165892;23;20012;-84
2022/03/16 00:39:59;;;;;;;60.70;23.23;;;5.60;99.90;;;;;;6165719;23;20419;-84
2022/03/16 00:42:26;;;;;;;63.63;25.45;;;5.60;99.90;;;;;;6190835;23;20008;-84
2022/03/16 00:44:54;;;;;;;66.35;26.50;;;5.60;99.90;;;;;;6165885;23;20004;-84
2022/03/16 00:47:21;;;;;;;59.85;24.50;;;5.50;99.90;;;;;;6160496;23;20024;-84
2022/03/16 00:49:50;;;;;;;56.10;26.27;;;5.50;99.90;;;;;;6160620;23;20008;-84
2022/03/16 00:52:17;;;;;;;65.28;26.45;;;5.60;99.90;;;;;;6185417;23;20009;-84
2022/03/16 00:54:43;;;;;;;74.40;25.88;;;5.50;99.90;;;;;;6160400;23;20005;-84
2022/03/16 00:57:10;;;;;;;75.85;29.73;;;5.50;99.90;;;;;;6160441;23;20147;-84
2022/03/16 00:59:39;;;;;;;60.35;24.65;;;5.60;99.90;;;;;;6160591;23;20012;-84
2022/03/16 01:02:06;;;;;;;73.13;27.10;;;5.50;99.90;;;;;;6135854;23;20078;-84
2022/03/16 01:04:33;;;;;;;71.20;26.83;;;5.50;99.90;;;;;;6185384;23;20391;-84
2022/03/16 01:07:00;;;;;;;77.40;27.85;;;5.50;99.90;;;;;;6160500;23;20017;-84
2022/03/16 01:09:26;;;;;;;66.22;26.85;;;5.50;99.90;;;;;;6185261;23;20427;-84
2022/03/16 01:11:56;;;;;;;73.72;25.45;;;5.60;99.90;;;;;;6185285;23;20040;-84
2022/03/16 01:14:23;;;;;;;67.35;25.17;;;5.60;99.90;;;;;;6160387;23;20012;-84
2022/03/16 01:16:50;;;;;;;70.65;27.13;;;5.50;99.90;;;;;;6160513;23;20108;-84
2022/03/16 01:19:17;;;;;;;66.55;26.45;;;5.50;99.90;;;;;;6160724;23;20005;-84
2022/03/16 01:21:44;;;;;;;66.70;26.10;;;5.50;99.90;;;;;;6160221;23;20005;-84
2022/03/16 01:24:12;;;;;;;72.32;25.58;;;5.50;99.90;;;;;;6160739;23;20009;-84
2022/03/16 01:26:38;;;;;;;64.88;25.30;;;5.50;99.90;;;;;;6160693;23;20103;-84
2022/03/16 01:29:05;;;;;;;73.50;26.95;;;5.40;99.90;;;;;;6185254;23;20394;-84
2022/03/16 01:31:32;;;;;;;53.33;24.20;;;5.40;99.90;;;;;;6160422;23;20036;-84
2022/03/16 01:33:59;;;;;;;55.88;25.88;;;5.40;99.90;;;;;;6160555;23;20054;-84
2022/03/16 01:36:26;;;;;;;65.07;26.20;;;5.40;99.90;;;;;;6160585;23;20095;-84
2022/03/16 01:38:53;;;;;;;66.15;25.15;;;5.30;99.90;;;;;;6160507;23;20005;-84
2022/03/16 01:41:21;;;;;;;67.68;25.58;;;5.30;99.90;;;;;;6160293;23;20020;-83
2022/03/16 01:43:56;;;;;;;65.07;25.95;;;5.30;99.90;;;;;;6186625;23;20006;-84
2022/03/16 01:46:23;;;;;;;60.33;24.17;;;5.30;99.90;;;;;;6162809;23;20013;-84
2022/03/16 01:48:53;;;;;;;64.13;25.60;;;5.30;99.90;;;;;;6167174;23;20017;-84
2022/03/16 01:51:24;;;;;;;64.78;26.70;;;5.30;99.90;;;;;;6192340;23;20035;-84
2022/03/16 01:53:55;;;;;;;66.43;24.60;;;5.30;99.90;;;;;;6192355;23;20028;-84
2022/03/16 01:56:21;;;;;;;62.38;24.63;;;5.30;99.90;;;;;;6167099;23;20012;-84
2022/03/16 01:58:48;;;;;;;65.82;24.52;;;5.30;99.90;;;;;;6192011;23;20066;-84
2022/03/16 02:01:15;;;;;;;62.22;24.13;;;5.20;99.90;;;;;;6167377;23;20005;-83
2022/03/16 02:03:42;;;;;;;66.95;26.90;;;5.20;99.90;;;;;;6167297;23;20012;-84
2022/03/16 02:06:10;;;;;;;58.72;23.27;;;5.20;99.90;;;;;;6192174;23;20066;-84
2022/03/16 02:08:37;;;;;;;51.17;24.02;;;5.20;99.90;;;;;;6166947;23;20028;-83
2022/03/16 02:11:04;;;;;;;61.75;24.30;;;5.20;99.90;;;;;;6167098;23;20035;-84
2022/03/16 02:13:34;;;;;;;53.70;22.98;;;5.20;99.90;;;;;;6191888;23;20055;-84
2022/03/16 02:16:02;;;;;;;65.78;25.33;;;5.10;99.90;;;;;;6167141;23;20091;-83
2022/03/16 02:18:29;;;;;;;59.97;23.77;;;5.10;99.90;;;;;;6167183;23;20004;-84
2022/03/16 02:21:00;;;;;;;68.57;24.23;;;5.10;99.90;;;;;;6167082;23;20013;-84
2022/03/16 02:23:26;;;;;;;48.80;21.70;;;5.10;99.90;;;;;;6166943;23;20120;-84
2022/03/16 02:25:55;;;;;;;64.75;22.55;;;5.10;99.90;;;;;;6167114;23;20090;-84
2022/03/16 02:28:22;;;;;;;51.67;24.23;;;5.10;99.90;;;;;;6167012;23;20031;-84
2022/03/16 02:30:49;;;;;;;61.38;23.15;;;5.10;99.90;;;;;;6166933;23;20084;-84
2022/03/16 02:33:16;;;;;;;57.25;22.70;;;5.00;99.90;;;;;;6167346;23;20012;-84
2022/03/16 02:35:43;;;;;;;49.92;23.40;;;5.00;99.90;;;;;;6191810;23;20062;-84
2022/03/16 02:38:10;;;;;;;61.80;23.95;;;5.00;99.90;;;;;;6166934;23;20035;-84
2022/03/16 02:40:37;;;;;;;49.40;21.63;;;5.00;99.90;;;;;;6167084;23;20083;-83
2022/03/16 02:43:04;;;;;;;52.80;21.98;;;5.00;99.90;;;;;;6166866;23;20004;-84
2022/03/16 02:45:36;;;;;;;52.00;20.70;;;5.00;99.90;;;;;;6167094;23;20021;-84
2022/03/16 02:48:03;;;;;;;56.33;20.30;;;5.00;99.90;;;;;;6166647;23;20023;-84
2022/03/16 02:50:31;;;;;;;60.60;21.70;;;5.10;99.90;;;;;;6166841;23;20000;-84
2022/03/16 02:52:59;;;;;;;49.78;20.48;;;5.00;99.90;;;;;;6166860;23;20009;-84
2022/03/16 02:55:25;;;;;;;57.53;20.38;;;5.00;99.90;;;;;;6191478;23;20076;-84
2022/03/16 02:57:55;;;;;;;56.15;21.92;;;5.00;99.90;;;;;;6166741;23;20032;-84
2022/03/16 03:00:26;;;;;;;53.70;20.05;;;5.00;99.90;;;;;;6191565;23;20028;-84
2022/03/16 03:02:56;;;;;;;51.05;21.30;;;5.00;99.90;;;;;;6166688;23;20008;-84
2022/03/16 03:05:23;;;;;;;44.58;20.15;;;5.00;99.90;;;;;;6166740;23;20055;-84
2022/03/16 03:07:50;;;;;;;42.10;19.10;;;5.00;99.90;;;;;;6166779;23;20013;-84
2022/03/16 03:10:16;;;;;;;46.95;19.05;;;5.00;99.90;;;;;;6166496;23;20060;-85
2022/03/16 03:12:43;;;;;;;43.28;18.63;;;5.00;99.90;;;;;;6166738;23;20083;-84
2022/03/16 03:15:13;;;;;;;42.80;18.08;;;5.00;99.90;;;;;;6166363;23;20009;-84
2022/03/16 03:17:40;;;;;;;47.35;18.35;;;4.90;99.90;;;;;;6166613;23;20465;-84
2022/03/16 03:20:08;;;;;;;53.10;18.38;;;5.00;99.90;;;;;;6166645;23;20055;-84
2022/03/16 03:22:35;;;;;;;46.65;19.23;;;4.90;99.90;;;;;;6191396;23;20004;-83
2022/03/16 03:25:02;;;;;;;46.88;19.65;;;4.90;99.90;;;;;;6166710;23;20009;-84
2022/03/16 03:27:30;;;;;;;45.65;18.70;;;4.90;99.90;;;;;;6166837;23;20023;-84
2022/03/16 03:29:57;;;;;;;44.35;19.40;;;4.90;99.90;;;;;;6166368;23;20004;-84
2022/03/16 03:32:23;;;;;;;43.63;17.75;;;4.90;99.90;;;;;;6191387;23;20465;-84
2022/03/16 03:34:51;;;;;;;45.58;18.13;;;4.90;99.90;;;;;;6166503;23;20001;-84
2022/03/16 03:37:19;;;;;;;49.10;17.30;;;4.90;99.90;;;;;;6166220;23;20012;-84
2022/03/16 03:39:46;;;;;;;48.65;17.67;;;4.90;99.90;;;;;;6191639;23;20087;-84
2022/03/16 03:42:13;;;;;;;43.90;17.60;;;4.80;99.90;;;;;;6191137;23;20008;-84
2022/03/16 03:44:40;;;;;;;41.38;16.85;;;4.80;99.90;;;;;;6166468;23;20386;-84
2022/03/16 03:47:10;;;;;;;40.95;17.38;;;4.80;99.90;;;;;;6166140;23;20017;-84
2022/03/16 03:49:40;;;;;;;43.22;17.85;;;4.80;99.90;;;;;;6166206;23;20039;-83
2022/03/16 03:52:08;;;;;;;45.95;17.40;;;4.80;99.90;;;;;;6191101;23;20005;-83
2022/03/16 03:54:35;;;;;;;38.20;16.08;;;4.80;99.90;;;;;;6166101;23;20008;-84
2022/03/16 03:57:03;;;;;;;42.58;16.92;;;4.80;99.90;;;;;;6166344;23;20078;-84
2022/03/16 03:59:30;;;;;;;39.65;17.55;;;4.80;99.90;;;;;;6166161;23;20004;-84
2022/03/16 04:02:05;;;;;;;42.83;17.30;;;4.80;99.90;;;;;;6165931;23;20008;-84
2022/03/16 04:04:32;;;;;;;42.20;17.10;;;4.80;99.90;;;;;;6191172;23;20009;-83
2022/03/16 04:06:58;;;;;;;42.22;16.25;;;4.90;99.90;;;;;;6165614;23;20016;-84
2022/03/16 04:09:28;;;;;;;31.92;15.40;;;4.90;99.90;;;;;;6166083;23;20013;-84
2022/03/16 04:11:54;;;;;;;40.17;17.65;;;4.90;99.90;;;;;;6165811;23;20004;-84
2022/03/16 04:14:20;;;;;;;48.65;17.95;;;4.90;99.90;;;;;;6166173;23;20032;-84
2022/03/16 04:16:47;;;;;;;37.20;18.27;;;4.90;99.90;;;;;;6165870;23;20005;-84
2022/03/16 04:19:15;;;;;;;49.15;17.67;;;4.90;99.90;;;;;;6166044;23;20005;-83
2022/03/16 04:21:41;;;;;;;43.42;17.63;;;4.90;99.90;;;;;;6166041;23;20008;-84
2022/03/16 04:24:08;;;;;;;48.20;18.75;;;4.90;99.90;;;;;;6190748;23;20088;-85
2022/03/16 04:26:35;;;;;;;41.08;17.27;;;4.90;99.90;;;;;;6166067;23;20375;-84
2022/03/16 04:29:01;;;;;;;41.83;16.77;;;4.80;99.90;;;;;;6166182;23;20009;-84
2022/03/16 04:31:28;;;;;;;39.00;16.60;;;4.80;99.90;;;;;;6190707;23;20039;-84
2022/03/16 04:33:55;;;;;;;41.75;18.38;;;4.80;99.90;;;;;;6165725;23;20119;-84
2022/03/16 04:36:22;;;;;;;38.92;17.27;;;4.80;99.90;;;;;;6165883;23;20012;-84
2022/03/16 04:38:50;;;;;;;41.85;17.77;;;4.70;99.90;;;;;;6165866;23;20004;-84
2022/03/16 04:41:16;;;;;;;37.97;17.67;;;4.70;99.90;;;;;;6165723;23;20008;-83
2022/03/16 04:43:43;;;;;;;43.30;17.08;;;4.70;99.90;;;;;;6165676;23;20032;-84
2022/03/16 04:46:09;;;;;;;44.58;17.38;;;4.70;99.90;;;;;;6165864;23;20020;-84
2022/03/16 04:48:36;;;;;;;42.03;19.23;;;4.70;99.90;;;;;;6165615;23;20020;-84
2022/03/16 04:51:02;;;;;;;44.40;18.90;;;4.70;99.90;;;;;;6165708;23;20009;-84
2022/03/16 04:53:29;;;;;;;38.92;16.35;;;4.70;99.90;;;;;;6165728;23;20008;-84
2022/03/16 04:55:55;;;;;;;41.38;17.30;;;4.70;99.90;;;;;;6165694;23;20005;-84
2022/03/16 04:58:22;;;;;;;42.17;17.65;;;4.60;99.90;;;;;;6190406;23;20019;-84
2022/03/16 05:00:48;;;;;;;43.33;17.63;;;4.60;99.90;;;;;;6165688;23;20498;-84
2022/03/16 05:03:18;;;;;;;39.58;16.70;;;4.60;99.90;;;;;;6165569;23;20055;-84
2022/03/16 05:05:46;;;;;;;39.17;18.17;;;4.60;99.90;;;;;;6165799;23;20091;-84
2022/03/16 05:08:16;;;;;;;36.85;15.77;;;4.60;99.90;;;;;;6165647;23;20019;-84
2022/03/16 05:10:42;;;;;;;40.95;17.25;;;4.60;99.90;;;;;;6165746;23;20009;-84
2022/03/16 05:13:09;;;;;;;40.55;16.83;;;4.70;99.90;;;;;;6165562;23;20009;-84
2022/03/16 05:15:36;;;;;;;39.28;16.20;;;4.70;99.90;;;;;;6165537;23;20009;-84
2022/03/16 05:18:03;;;;;;;39.95;16.77;;;4.70;99.90;;;;;;6165438;23;20087;-84
2022/03/16 05:20:29;;;;;;;36.35;15.40;;;4.80;99.90;;;;;;6190631;23;20001;-84
2022/03/16 05:22:56;;;;;;;42.45;17.02;;;4.80;99.90;;;;;;6190339;23;20012;-83
2022/03/16 05:25:30;;;;;;;31.20;14.55;;;4.80;99.90;;;;;;6165305;23;20032;-83
2022/03/16 05:27:57;;;;;;;35.25;14.98;;;4.90;99.90;;;;;;6165361;23;20012;-84
2022/03/16 05:30:26;;;;;;;35.13;16.17;;;4.90;99.90;;;;;;6190300;23;20434;-84
2022/03/16 05:33:02;;;;;;;38.33;15.30;;;5.00;99.90;;;;;;6190125;23;20013;-85
2022/03/16 05:35:30;;;;;;;40.05;14.65;;;5.00;99.90;;;;;;6190277;23;20005;-83
2022/03/16 05:37:57;;;;;;;40.22;16.67;;;5.10;99.90;;;;;;6165308;23;20300;-84
2022/03/16 05:40:24;;;;;;;32.92;15.73;;;5.20;99.90;;;;;;6190303;23;20015;-85
2022/03/16 05:42:50;;;;;;;35.78;15.38;;;5.30;99.90;;;;;;6165243;23;20014;-82
2022/03/16 05:45:17;;;;;;;32.17;15.85;;;5.40;99.90;;;;;;6165155;23;20457;-86
2022/03/16 05:47:43;;;;;;;37.55;15.02;;;5.50;99.90;;;;;;6165386;23;20016;-86
2022/03/16 05:50:10;;;;;;;36.80;16.20;;;5.50;99.90;;;;;;6165706;23;20031;-86
2022/03/16 05:52:41;;;;;;;37.80;16.50;;;5.60;99.90;;;;;;6190386;23;20403;-86
2022/03/16 05:55:09;;;;;;;44.30;15.95;;;5.70;99.90;;;;;;6190262;23;20011;-87
2022/03/16 05:57:39;;;;;;;36.88;15.80;;;5.70;99.90;;;;;;6165478;23;20036;-87
2022/03/16 06:00:14;;;;;;;36.65;16.70;;;5.90;99.90;;;;;;6190208;23;20492;-87
2022/03/16 06:02:43;;;;;;;34.00;14.73;;;6.00;99.90;;;;;;6190336;23;20008;-85
2022/03/16 06:05:10;;;;;;;39.60;15.52;;;6.10;99.90;;;;;;6165283;23;20008;-84
2022/03/16 06:07:38;;;;;;;34.28;13.55;;;6.20;99.90;;;;;;6165872;23;20447;-87
2022/03/16 06:10:10;;;;;;;37.20;14.50;;;6.40;99.90;;;;;;6165636;23;20001;-83
2022/03/16 06:13:09;;;;;;;32.85;14.98;;;6.60;99.90;;;;;;6190059;23;20083;-85
2022/03/16 06:15:43;;;;;;;32.20;13.05;;;6.70;99.90;;;;;;6077050;23;20013;-85
2022/03/16 06:18:11;;;;;;;27.15;11.55;;;6.80;99.90;;;;;;6100674;23;20340;-87
2022/03/16 06:20:38;;;;;;;29.92;11.85;;;6.90;99.90;;;;;;6076881;23;20001;-88
2022/03/16 06:23:06;;;;;;;25.40;11.48;;;7.10;99.90;;;;;;6076562;23;20027;-86
2022/03/16 06:25:34;;;;;;;27.42;11.93;;;7.30;99.90;;;;;;6076618;23;20021;-85
2022/03/16 06:28:04;;;;;;;25.48;11.30;;;7.40;99.90;;;;;;6076390;23;20013;-85
2022/03/16 06:30:30;;;;;;;28.55;10.80;;;7.50;99.90;;;;;;6077515;23;20017;-84
2022/03/16 06:32:57;;;;;;;20.33;9.75;;;7.60;99.90;;;;;;6078429;23;20006;-86
2022/03/16 06:35:23;;;;;;;34.70;11.25;;;7.70;99.90;;;;;;6078394;23;20129;-85
2022/03/16 06:37:59;;;;;;;31.80;10.02;;;7.80;99.90;;;;;;6078463;23;20329;-91
2022/03/16 06:40:26;;;;;;;21.15;8.93;;;8.00;99.90;;;;;;6078464;23;20014;-86
2022/03/16 06:42:55;;;;;;;25.35;9.35;;;8.30;99.90;;;;;;6078247;23;20093;-86
2022/03/16 06:45:23;;;;;;;19.10;8.25;;;8.40;99.90;;;;;;6078409;23;20026;-86
2022/03/16 06:47:55;;;;;;;15.65;8.27;;;8.50;99.90;;;;;;6077769;23;20468;-86
2022/03/16 06:50:22;;;;;;;16.42;6.55;;;8.60;99.90;;;;;;6094495;23;20008;-86
2022/03/16 06:52:49;;;;;;;18.25;6.70;;;8.70;99.90;;;;;;6166449;23;20059;-86
2022/03/16 06:55:15;;;;;;;11.35;5.70;;;9.00;99.90;;;;;;6166569;23;20679;-86
2022/03/16 06:57:42;;;;;;;11.70;4.40;;;9.30;99.90;;;;;;6166914;23;20393;-89
2022/03/16 07:00:12;;;;;;;13.73;4.93;;;9.50;99.90;;;;;;6166498;23;20009;-86
2022/03/16 07:02:51;;;;;;;10.25;4.35;;;9.80;99.90;;;;;;6166633;23;20427;-85
2022/03/16 07:05:20;;;;;;;10.18;4.68;;;10.00;99.90;;;;;;6191210;23;20012;-86
2022/03/16 07:07:47;;;;;;;7.05;3.88;;;10.20;99.90;;;;;;6191394;23;20063;-83
2022/03/16 07:10:14;;;;;;;5.50;2.88;;;10.40;99.90;;;;;;6166563;23;20004;-86
2022/03/16 07:12:41;;;;;;;8.75;3.10;;;10.60;99.90;;;;;;6166065;23;20036;-83
2022/03/16 07:15:09;;;;;;;4.43;2.28;;;10.70;99.90;;;;;;6165856;23;20024;-83
2022/03/16 07:17:36;;;;;;;6.25;2.35;;;10.80;99.90;;;;;;6165761;23;20009;-80
2022/03/16 07:20:06;;;;;;;5.32;2.30;;;11.10;99.90;;;;;;6190579;23;20063;-83
2022/03/16 07:22:35;;;;;;;4.68;2.47;;;11.40;99.90;;;;;;6165651;23;20015;-83
2022/03/16 07:25:03;;;;;;;3.10;1.73;;;11.50;99.90;;;;;;6165673;23;20015;-83
2022/03/16 07:27:30;;;;;;;9.43;1.67;;;11.70;99.90;;;;;;6165683;23;20020;-80
2022/03/16 07:29:57;;;;;;;3.40;1.83;;;11.90;99.90;;;;;;6165670;23;20000;-81
2022/03/16 07:32:24;;;;;;;4.35;1.70;;;12.10;99.90;;;;;;6165602;23;20019;-81
2022/03/16 07:34:50;;;;;;;5.05;2.35;;;12.20;99.90;;;;;;6165570;23;20054;-83
2022/03/16 07:37:17;;;;;;;3.60;2.08;;;12.40;99.90;;;;;;6165581;23;20005;-80
2022/03/16 07:39:44;;;;;;;4.85;2.63;;;12.70;99.90;;;;;;6190417;23;20044;-80
2022/03/16 07:42:12;;;;;;;3.85;1.67;;;12.80;99.90;;;;;;6189967;23;20049;-81
2022/03/16 07:44:39;;;;;;;7.80;2.05;;;12.90;99.90;;;;;;6190342;23;20001;-81
2022/03/16 07:47:07;;;;;;;6.13;2.28;;;13.00;99.90;;;;;;6164967;23;20353;-81
2022/03/16 07:49:35;;;;;;;10.98;3.00;;;13.10;99.90;;;;;;6165555;23;20030;-81
2022/03/16 07:52:02;;;;;;;7.43;2.63;;;13.10;99.90;;;;;;6165271;23;20083;-80
2022/03/16 07:54:28;;;;;;;5.40;2.78;;;13.30;99.90;;;;;;6190026;23;20004;-80
2022/03/16 07:56:56;;;;;;;4.68;2.30;;;13.40;99.90;;;;;;6165390;23;20013;-81
2022/03/16 07:59:23;;;;;;;5.50;2.47;;;13.50;99.90;;;;;;6165241;23;20058;-80
2022/03/16 08:01:50;;;;;;;5.03;2.10;;;13.70;99.90;;;;;;6165241;23;20016;-81
2022/03/16 08:04:16;;;;;;;6.68;2.03;;;13.80;99.90;;;;;;6165224;23;20453;-81
2022/03/16 08:06:43;;;;;;;4.60;2.42;;;14.00;99.90;;;;;;6165325;23;20154;-81
2022/03/16 08:09:10;;;;;;;3.78;2.28;;;13.90;99.90;;;;;;6190207;23;20004;-83
2022/03/16 08:11:37;;;;;;;6.93;1.80;;;13.80;99.90;;;;;;6165169;23;20004;-83
2022/03/16 08:14:04;;;;;;;5.30;2.70;;;13.90;99.90;;;;;;6165252;23;20385;-83
2022/03/16 08:16:31;;;;;;;4.93;1.90;;;13.90;99.90;;;;;;6189898;23;20008;-83
2022/03/16 08:18:58;;;;;;;5.38;1.95;;;14.00;99.90;;;;;;6190432;23;20485;-87
2022/03/16 08:21:25;;;;;;;4.30;1.65;;;14.10;99.90;;;;;;6165059;23;20343;-82
2022/03/16 08:23:53;;;;;;;5.53;2.00;;;14.40;99.90;;;;;;6190068;23;20048;-84
2022/03/16 08:27:32;;;;;;;3.58;1.70;;;14.80;99.90;;;;;;6191542;23;20447;-91
2022/03/16 08:38:31;;;;;;;5.82;1.60;;;16.00;99.90;;;;;;6178989;23;20032;-93
2022/03/16 10:15:18;;;;;;;5.72;1.52;;;16.30;99.90;;;;;;6179990;23;20009;-93
2022/03/16 10:17:52;;;;;;;5.95;1.65;;;16.40;99.90;;;;;;6140313;23;20041;-92
2022/03/16 10:20:33;;;;;;;2.10;1.35;;;16.40;99.90;;;;;;6139219;23;20005;-92
2022/03/16 10:23:10;;;;;;;3.30;1.25;;;16.50;99.90;;;;;;6136345;23;20009;-95
2022/03/16 10:25:47;;;;;;;2.10;1.20;;;16.40;99.90;;;;;;6137851;23;20016;-93
2022/03/16 10:28:18;;;;;;;1.95;1.10;;;16.40;99.90;;;;;;6138063;23;20047;-92
2022/03/16 10:31:00;;;;;;;5.05;1.63;;;16.50;99.90;;;;;;6138180;23;20008;-93
2022/03/16 10:33:35;;;;;;;4.55;1.65;;;16.50;99.90;;;;;;6138375;23;20486;-94
2022/03/16 10:36:11;;;;;;;3.55;1.50;;;16.50;99.90;;;;;;6137591;23;20013;-91
2022/03/16 10:38:46;;;;;;;6.90;1.88;;;16.60;99.90;;;;;;6137677;23;20013;-91
2022/03/16 10:46:34;;;;;;;4.65;1.60;;;16.60;99.90;;;;;;6161930;23;20091;-94
2022/03/16 10:47:00;;;;;;;3.72;1.75;;;16.50;99.90;;;;;;6161739;23;20013;-93
2022/03/16 10:49:34;;;;;;;4.53;1.45;;;16.50;99.90;;;;;;6137840;23;20013;-94
2022/03/16 10:52:06;;;;;;;1.60;1.50;;;16.50;99.90;;;;;;6137279;23;20047;-95
2022/03/16 10:54:36;;;;;;;4.03;1.52;;;16.40;99.90;;;;;;6137446;23;20005;-93
2022/03/16 10:57:10;;;;;;;5.35;2.00;;;16.40;99.90;;;;;;6137900;23;20438;-92
2022/03/16 10:59:38;;;;;;;2.28;1.42;;;16.40;99.90;;;;;;6137284;23;20005;-93
2022/03/16 11:02:12;;;;;;;3.28;1.40;;;16.30;99.90;;;;;;6137342;23;20092;-93
2022/03/16 11:04:47;;;;;;;3.72;1.70;;;16.30;99.90;;;;;;6138807;23;20009;-94
2022/03/16 11:07:15;;;;;;;2.17;1.27;;;16.50;99.90;;;;;;6137300;23;20048;-93
2022/03/16 11:09:42;;;;;;;4.03;2.20;;;16.60;99.90;;;;;;6137144;23;20023;-92
2022/03/16 11:14:56;;;;;;;6.22;2.08;;;16.50;99.90;;;;;;6161883;23;20008;-93
2022/03/16 11:17:22;;;;;;;1.92;1.38;;;16.40;99.90;;;;;;6137111;23;20005;-95
2022/03/16 11:19:52;;;;;;;7.25;1.98;;;16.50;99.90;;;;;;6138380;23;20419;-94
2022/03/16 11:22:35;;;;;;;4.35;1.20;;;16.50;99.90;;;;;;6137664;23;20453;-93
2022/03/16 11:25:10;;;;;;;4.35;1.20;;;16.50;99.90;;;;;;6162160;23;20004;-94
2022/03/16 11:27:53;;;;;;;9.32;2.50;;;16.50;99.90;;;;;;6136878;23;20023;-94
2022/03/16 11:30:36;;;;;;;4.60;2.17;;;16.60;99.90;;;;;;6137232;23;20016;-93
2022/03/16 11:33:12;;;;;;;9.70;3.33;;;16.60;99.90;;;;;;6136902;23;20017;-93
2022/03/16 11:35:44;;;;;;;4.07;1.98;;;16.60;99.90;;;;;;6136870;23;20009;-93
2022/03/16 11:38:13;;;;;;;3.03;1.80;;;16.60;99.90;;;;;;6136919;23;20012;-95
2022/03/16 11:40:42;;;;;;;6.22;2.45;;;16.50;99.90;;;;;;6137492;23;20036;-94
2022/03/16 11:43:12;;;;;;;3.35;1.90;;;16.50;99.90;;;;;;6137060;23;20036;-92
2022/03/16 11:45:43;;;;;;;5.75;2.10;;;16.60;99.90;;;;;;6137077;23;20005;-94
2022/03/16 11:48:35;;;;;;;4.90;2.17;;;16.60;99.90;;;;;;6137199;23;20009;-93
2022/03/16 11:51:24;;;;;;;4.38;1.90;;;16.50;99.90;;;;;;6139028;23;20009;-93
2022/03/16 11:53:51;;;;;;;4.68;2.63;;;16.50;99.90;;;;;;6137568;23;20013;-92
2022/03/16 11:56:23;;;;;;;5.63;1.77;;;16.40;99.90;;;;;;6137287;23;20009;-94
2022/03/16 11:58:54;;;;;;;2.85;1.80;;;16.40;99.90;;;;;;6135478;23;20005;-94
2022/03/16 12:01:33;;;;;;;9.00;1.52;;;16.50;99.90;;;;;;6136454;23;20017;-92
2022/03/16 12:04:24;;;;;;;3.78;1.70;;;16.60;99.90;;;;;;6137070;23;20462;-93
2022/03/16 12:07:09;;;;;;;1.90;1.60;;;16.50;99.90;;;;;;6136981;23;20045;-93
2022/03/16 12:09:49;;;;;;;3.33;2.00;;;16.50;99.90;;;;;;6136949;23;20017;-93
2022/03/16 12:15:19;;;;;;;17.38;4.32;;;16.40;99.90;;;;;;6191287;23;20008;-95
2022/03/16 12:17:52;;;;;;;3.05;1.88;;;16.40;99.90;;;;;;6191124;23;20009;-92
2022/03/16 12:20:22;;;;;;;1.88;1.45;;;16.40;99.90;;;;;;6167212;23;20015;-96
2022/03/16 12:23:10;;;;;;;5.07;2.28;;;16.50;99.90;;;;;;6167291;23;20470;-94
2022/03/16 12:25:51;;;;;;;3.72;2.17;;;16.50;99.90;;;;;;6167420;23;20381;-94
2022/03/16 12:31:19;;;;;;;2.40;1.58;;;16.70;99.90;;;;;;6193152;23;20005;-94
2022/03/16 12:33:55;;;;;;;5.25;2.60;;;16.60;99.90;;;;;;6191158;23;20012;-93
2022/03/16 12:36:40;;;;;;;3.47;2.03;;;16.60;99.90;;;;;;6165930;23;20035;-95
2022/03/16 12:39:08;;;;;;;5.25;1.50;;;16.50;99.90;;;;;;6193244;23;20008;-93
2022/03/16 12:44:22;;;;;;;5.72;2.22;;;16.50;99.90;;;;;;6191246;23;20035;-93
2022/03/16 12:47:07;;;;;;;6.38;2.28;;;16.40;99.90;;;;;;6167121;23;20020;-92
2022/03/16 12:49:43;;;;;;;4.07;1.52;;;16.30;99.90;;;;;;6165950;23;20004;-92
2022/03/16 12:52:10;;;;;;;3.78;1.75;;;16.40;99.90;;;;;;6166026;23;20016;-92
2022/03/16 12:54:38;;;;;;;8.98;2.70;;;16.30;99.90;;;;;;6190532;23;20008;-92
2022/03/16 12:57:08;;;;;;;3.47;1.85;;;16.20;99.90;;;;;;6166069;23;20005;-93
2022/03/16 12:59:53;;;;;;;4.97;1.98;;;16.10;99.90;;;;;;6166947;23;20016;-91
2022/03/16 13:02:22;;;;;;;5.18;2.08;;;16.10;99.90;;;;;;6172870;23;20004;-91
2022/03/16 13:05:00;;;;;;;5.28;1.35;;;16.10;99.90;;;;;;6165993;23;20005;-92
2022/03/16 13:07:27;;;;;;;20.40;2.28;;;16.10;99.90;;;;;;6165398;23;20103;-91
2022/03/16 13:09:54;;;;;;;2.47;1.55;;;16.10;99.90;;;;;;6165641;23;20044;-91
2022/03/16 13:12:25;;;;;;;4.50;1.80;;;16.00;99.90;;;;;;6190411;23;20021;-92
2022/03/16 13:14:57;;;;;;;5.25;2.10;;;15.90;99.90;;;;;;6190369;23;20015;-91
2022/03/16 13:17:24;;;;;;;2.38;1.58;;;15.90;99.90;;;;;;6165684;23;20012;-92
2022/03/16 13:19:55;;;;;;;3.17;1.08;;;15.90;99.90;;;;;;6165990;23;20497;-91
2022/03/16 13:22:23;;;;;;;7.05;1.98;;;15.80;99.90;;;;;;6165819;23;20019;-92
2022/03/16 13:24:55;;;;;;;5.65;1.75;;;15.70;99.90;;;;;;6168159;23;20005;-91
2022/03/16 14:03:26;;;;;;;9.15;2.50;;;15.70;99.90;;;;;;6179626;23;20098;-93
2022/03/16 14:06:19;;;;;;;4.13;2.20;;;15.60;99.90;;;;;;6176580;23;20005;-93
2022/03/16 14:21:36;;;;;;;5.93;2.70;;;15.40;99.90;;;;;;6233851;23;20269;-94
2022/03/16 14:33:42;;;;;;;3.60;2.13;;;15.40;99.90;;;;;;6225986;23;20051;-94
2022/03/16 15:17:53;;;;;;;9.73;3.13;;;15.10;99.90;;;;;;6160340;23;20016;-93
2022/03/16 16:45:20;;;;;;;9.73;4.30;;;13.50;99.90;;;;;;6219670;23;20032;-93
2022/03/16 16:47:51;;;;;;;10.60;5.22;;;13.40;99.90;;;;;;6198263;23;20027;-93
2022/03/16 16:50:20;;;;;;;9.70;4.50;;;13.40;99.90;;;;;;6150667;23;20015;-93
2022/03/16 16:52:46;;;;;;;13.35;5.05;;;13.30;99.90;;;;;;6166928;23;20427;-92
2022/03/16 16:55:16;;;;;;;12.13;4.40;;;13.30;99.90;;;;;;6169446;23;20431;-93
2022/03/16 16:57:45;;;;;;;8.52;4.65;;;13.20;99.90;;;;;;6188095;23;20025;-93
2022/03/16 17:00:12;;;;;;;10.55;4.45;;;13.20;99.90;;;;;;6168801;23;20005;-92
2022/03/16 17:02:42;;;;;;;9.63;4.65;;;13.10;99.90;;;;;;6200141;23;20009;-93
2022/03/16 17:05:10;;;;;;;29.65;5.93;;;13.10;99.90;;;;;;6190940;23;20040;-92
2022/03/16 17:07:39;;;;;;;14.10;6.07;;;13.00;99.90;;;;;;6163428;23;20050;-93
2022/03/16 17:10:06;;;;;;;11.20;4.97;;;13.00;99.90;;;;;;6139007;23;20001;-93
2022/03/16 17:12:33;;;;;;;12.85;4.80;;;13.00;99.90;;;;;;6163329;23;20009;-93
2022/03/16 17:15:00;;;;;;;8.48;5.38;;;13.00;99.90;;;;;;6136403;23;20005;-92
2022/03/16 17:17:27;;;;;;;11.25;5.47;;;12.90;99.90;;;;;;6133555;23;20009;-94
2022/03/16 17:19:53;;;;;;;16.20;6.57;;;12.80;99.90;;;;;;6106973;23;20012;-92
2022/03/16 17:22:23;;;;;;;26.08;5.90;;;12.80;99.90;;;;;;6129906;23;20010;-93
2022/03/16 17:24:52;;;;;;;17.85;7.28;;;12.80;99.90;;;;;;6108055;23;20016;-92
2022/03/16 17:27:19;;;;;;;14.57;7.70;;;12.80;99.90;;;;;;6130558;23;20100;-92
2022/03/16 17:29:57;;;;;;;24.33;8.48;;;12.70;99.90;;;;;;6110697;23;20006;-93
2022/03/16 17:32:24;;;;;;;11.02;6.25;;;12.70;99.90;;;;;;6148547;23;20559;-93
2022/03/16 17:34:53;;;;;;;12.98;5.15;;;12.70;99.90;;;;;;6161677;23;20005;-94
2022/03/16 17:37:23;;;;;;;14.77;5.18;;;12.60;99.90;;;;;;6162327;23;20048;-93
2022/03/16 17:39:52;;;;;;;12.32;4.85;;;12.60;99.90;;;;;;6163603;23;20491;-94
2022/03/16 17:45:30;;;;;;;19.63;7.43;;;12.50;99.90;;;;;;6192976;23;20009;-93
2022/03/16 17:48:05;;;;;;;32.05;13.90;;;12.40;99.90;;;;;;6158978;23;20021;-93
2022/03/16 17:51:10;;;;;;;73.85;20.75;;;12.30;99.90;;;;;;6145731;23;20024;-93
2022/03/16 17:54:15;;;;;;;62.85;19.90;;;12.30;99.90;;;;;;6060132;23;20043;-93
2022/03/16 17:57:14;;;;;;;53.97;16.20;;;12.20;99.90;;;;;;6037528;23;20499;-94
2022/03/16 17:59:43;;;;;;;46.45;13.30;;;12.10;99.90;;;;;;6045937;23;20015;-94